sensor_id;sensor_type;location;lat;lon;timestamp;P1;durP1;ratioP1;P2;durP2;ratioP2
40154;SDS011;25875;48.202;16.334;2023-03-31T00:02:21;2.95;;;1.80;;
40154;SDS011;25875;48.202;16.334;2023-03-31T00:04:48;3.20;;;1.98;;
40154;SDS011;25875;48.202;16.334;2023-03-31T00:07:17;4.68;;;2.35;;
40154;SDS011;25875;48.202;16.334;2023-03-31T00:09:48;2.90;;;1.80;;
40154;SDS011;25875;48.202;16.334;2023-03-31T00:12:19;3.08;;;1.85;;
40154;SDS011;25875;48.202;16.334;2023-03-31T00:14:46;3.83;;;1.60;;
40154;SDS011;25875;48.202;16.334;2023-03-31T00:17:14;3.42;;;2.22;;
40154;SDS011;25875;48.202;16.334;2023-03-31T00:19:42;3.20;;;2.03;;
40154;SDS011;25875;48.202;16.334;2023-03-31T00:22:09;3.88;;;2.38;;
40154;SDS011;25875;48.202;16.334;2023-03-31T00:24:36;3.75;;;1.90;;
40154;SDS011;25875;48.202;16.334;2023-03-31T00:27:03;4.30;;;1.83;;
40154;SDS011;25875;48.202;16.334;2023-03-31T00:29:30;3.67;;;1.67;;
40154;SDS011;25875;48.202;16.334;2023-03-31T00:32:00;3.35;;;1.98;;
40154;SDS011;25875;48.202;16.334;2023-03-31T00:34:28;3.13;;;1.98;;
40154;SDS011;25875;48.202;16.334;2023-03-31T00:36:54;4.28;;;2.35;;
40154;SDS011;25875;48.202;16.334;2023-03-31T00:39:22;3.88;;;1.88;;
40154;SDS011;25875;48.202;16.334;2023-03-31T00:41:49;3.85;;;2.03;;
40154;SDS011;25875;48.202;16.334;2023-03-31T00:44:17;2.85;;;2.08;;
40154;SDS011;25875;48.202;16.334;2023-03-31T00:46:49;3.67;;;1.88;;
40154;SDS011;25875;48.202;16.334;2023-03-31T00:49:19;3.15;;;1.95;;
40154;SDS011;25875;48.202;16.334;2023-03-31T00:51:53;2.83;;;1.75;;
40154;SDS011;25875;48.202;16.334;2023-03-31T00:54:22;3.00;;;1.90;;
40154;SDS011;25875;48.202;16.334;2023-03-31T00:56:52;2.60;;;1.80;;
40154;SDS011;25875;48.202;16.334;2023-03-31T00:59:27;3.05;;;1.73;;
40154;SDS011;25875;48.202;16.334;2023-03-31T01:01:57;2.83;;;1.85;;
40154;SDS011;25875;48.202;16.334;2023-03-31T01:04:27;8.23;;;2.55;;
40154;SDS011;25875;48.202;16.334;2023-03-31T01:07:01;4.07;;;2.65;;
40154;SDS011;25875;48.202;16.334;2023-03-31T01:09:33;2.97;;;2.13;;
40154;SDS011;25875;48.202;16.334;2023-03-31T01:12:03;3.45;;;2.28;;
40154;SDS011;25875;48.202;16.334;2023-03-31T01:14:32;3.42;;;2.28;;
40154;SDS011;25875;48.202;16.334;2023-03-31T01:16:59;3.80;;;2.30;;
40154;SDS011;25875;48.202;16.334;2023-03-31T01:19:29;4.03;;;2.47;;
40154;SDS011;25875;48.202;16.334;2023-03-31T01:22:19;3.33;;;2.25;;
40154;SDS011;25875;48.202;16.334;2023-03-31T01:25:13;3.50;;;2.50;;
40154;SDS011;25875;48.202;16.334;2023-03-31T01:28:14;6.20;;;2.95;;
40154;SDS011;25875;48.202;16.334;2023-03-31T01:37:22;4.10;;;3.10;;
40154;SDS011;25875;48.202;16.334;2023-03-31T01:43:19;5.13;;;2.60;;
40154;SDS011;25875;48.202;16.334;2023-03-31T01:45:53;4.70;;;3.17;;
40154;SDS011;25875;48.202;16.334;2023-03-31T01:48:30;4.38;;;3.22;;
40154;SDS011;25875;48.202;16.334;2023-03-31T01:51:06;6.18;;;3.05;;
40154;SDS011;25875;48.202;16.334;2023-03-31T01:53:41;5.20;;;3.00;;
40154;SDS011;25875;48.202;16.334;2023-03-31T01:56:16;5.47;;;3.05;;
40154;SDS011;25875;48.202;16.334;2023-03-31T01:58:48;3.88;;;2.65;;
40154;SDS011;25875;48.202;16.334;2023-03-31T02:01:19;5.93;;;3.22;;
40154;SDS011;25875;48.202;16.334;2023-03-31T02:03:52;3.88;;;2.40;;
40154;SDS011;25875;48.202;16.334;2023-03-31T02:06:22;4.68;;;2.63;;
40154;SDS011;25875;48.202;16.334;2023-03-31T02:08:53;3.70;;;2.50;;
40154;SDS011;25875;48.202;16.334;2023-03-31T02:11:24;3.95;;;3.15;;
40154;SDS011;25875;48.202;16.334;2023-03-31T02:13:56;5.53;;;3.22;;
40154;SDS011;25875;48.202;16.334;2023-03-31T02:16:27;5.07;;;3.47;;
40154;SDS011;25875;48.202;16.334;2023-03-31T02:18:56;6.15;;;2.80;;
40154;SDS011;25875;48.202;16.334;2023-03-31T02:21:27;6.05;;;3.13;;
40154;SDS011;25875;48.202;16.334;2023-03-31T02:23:56;3.92;;;2.60;;
40154;SDS011;25875;48.202;16.334;2023-03-31T02:26:27;4.20;;;2.97;;
40154;SDS011;25875;48.202;16.334;2023-03-31T02:28:56;5.82;;;3.00;;
40154;SDS011;25875;48.202;16.334;2023-03-31T02:31:25;4.00;;;2.78;;
40154;SDS011;25875;48.202;16.334;2023-03-31T02:33:55;4.25;;;3.17;;
40154;SDS011;25875;48.202;16.334;2023-03-31T02:36:22;6.07;;;4.43;;
40154;SDS011;25875;48.202;16.334;2023-03-31T02:38:50;14.52;;;10.02;;
40154;SDS011;25875;48.202;16.334;2023-03-31T02:41:21;7.70;;;5.00;;
40154;SDS011;25875;48.202;16.334;2023-03-31T02:43:49;5.78;;;3.83;;
40154;SDS011;25875;48.202;16.334;2023-03-31T02:46:16;5.28;;;3.38;;
40154;SDS011;25875;48.202;16.334;2023-03-31T02:48:44;4.72;;;3.22;;
40154;SDS011;25875;48.202;16.334;2023-03-31T03:00:04;4.65;;;2.88;;
40154;SDS011;25875;48.202;16.334;2023-03-31T03:02:36;5.80;;;3.30;;
40154;SDS011;25875;48.202;16.334;2023-03-31T03:05:22;4.75;;;2.78;;
40154;SDS011;25875;48.202;16.334;2023-03-31T03:08:02;3.95;;;2.88;;
40154;SDS011;25875;48.202;16.334;2023-03-31T03:10:40;4.75;;;3.03;;
40154;SDS011;25875;48.202;16.334;2023-03-31T03:13:17;4.10;;;3.10;;
40154;SDS011;25875;48.202;16.334;2023-03-31T03:15:51;3.85;;;3.40;;
40154;SDS011;25875;48.202;16.334;2023-03-31T03:18:26;3.95;;;2.92;;
40154;SDS011;25875;48.202;16.334;2023-03-31T03:20:52;5.43;;;3.05;;
40154;SDS011;25875;48.202;16.334;2023-03-31T03:23:20;5.50;;;3.72;;
40154;SDS011;25875;48.202;16.334;2023-03-31T03:25:46;6.50;;;3.42;;
40154;SDS011;25875;48.202;16.334;2023-03-31T03:28:13;4.97;;;3.63;;
40154;SDS011;25875;48.202;16.334;2023-03-31T03:30:41;6.93;;;3.85;;
40154;SDS011;25875;48.202;16.334;2023-03-31T03:33:09;8.85;;;4.07;;
40154;SDS011;25875;48.202;16.334;2023-03-31T03:35:41;7.65;;;3.65;;
40154;SDS011;25875;48.202;16.334;2023-03-31T03:38:08;4.85;;;3.15;;
40154;SDS011;25875;48.202;16.334;2023-03-31T03:40:34;6.45;;;3.15;;
40154;SDS011;25875;48.202;16.334;2023-03-31T03:43:01;6.43;;;3.30;;
40154;SDS011;25875;48.202;16.334;2023-03-31T03:45:28;5.30;;;3.33;;
40154;SDS011;25875;48.202;16.334;2023-03-31T03:47:55;5.28;;;3.72;;
40154;SDS011;25875;48.202;16.334;2023-03-31T03:50:23;5.35;;;3.35;;
40154;SDS011;25875;48.202;16.334;2023-03-31T03:52:49;4.28;;;3.13;;
40154;SDS011;25875;48.202;16.334;2023-03-31T03:55:16;4.07;;;3.60;;
40154;SDS011;25875;48.202;16.334;2023-03-31T03:57:43;5.03;;;3.35;;
40154;SDS011;25875;48.202;16.334;2023-03-31T04:00:10;4.05;;;3.15;;
40154;SDS011;25875;48.202;16.334;2023-03-31T04:02:38;5.50;;;3.30;;
40154;SDS011;25875;48.202;16.334;2023-03-31T04:05:05;4.97;;;3.70;;
40154;SDS011;25875;48.202;16.334;2023-03-31T04:07:33;7.53;;;3.70;;
40154;SDS011;25875;48.202;16.334;2023-03-31T04:10:00;5.68;;;3.67;;
40154;SDS011;25875;48.202;16.334;2023-03-31T04:12:26;6.10;;;3.42;;
40154;SDS011;25875;48.202;16.334;2023-03-31T04:14:53;5.28;;;3.67;;
40154;SDS011;25875;48.202;16.334;2023-03-31T04:17:20;6.03;;;4.05;;
40154;SDS011;25875;48.202;16.334;2023-03-31T04:19:57;5.43;;;4.00;;
40154;SDS011;25875;48.202;16.334;2023-03-31T04:22:26;4.50;;;3.80;;
40154;SDS011;25875;48.202;16.334;2023-03-31T04:25:00;6.22;;;4.22;;
40154;SDS011;25875;48.202;16.334;2023-03-31T04:27:27;6.53;;;4.10;;
40154;SDS011;25875;48.202;16.334;2023-03-31T04:29:55;7.82;;;3.85;;
40154;SDS011;25875;48.202;16.334;2023-03-31T04:32:22;6.15;;;3.90;;
40154;SDS011;25875;48.202;16.334;2023-03-31T04:34:49;5.30;;;3.67;;
40154;SDS011;25875;48.202;16.334;2023-03-31T04:37:15;4.70;;;3.72;;
40154;SDS011;25875;48.202;16.334;2023-03-31T04:39:42;4.65;;;3.80;;
40154;SDS011;25875;48.202;16.334;2023-03-31T04:42:12;7.82;;;3.47;;
40154;SDS011;25875;48.202;16.334;2023-03-31T04:44:39;6.55;;;3.60;;
40154;SDS011;25875;48.202;16.334;2023-03-31T04:47:05;5.75;;;4.00;;
40154;SDS011;25875;48.202;16.334;2023-03-31T04:49:32;9.02;;;4.57;;
40154;SDS011;25875;48.202;16.334;2023-03-31T04:52:00;4.70;;;3.65;;
40154;SDS011;25875;48.202;16.334;2023-03-31T04:54:27;5.93;;;4.15;;
40154;SDS011;25875;48.202;16.334;2023-03-31T04:56:54;5.55;;;3.58;;
40154;SDS011;25875;48.202;16.334;2023-03-31T04:59:22;6.18;;;3.60;;
40154;SDS011;25875;48.202;16.334;2023-03-31T05:01:49;8.77;;;3.95;;
40154;SDS011;25875;48.202;16.334;2023-03-31T05:04:16;6.28;;;4.20;;
40154;SDS011;25875;48.202;16.334;2023-03-31T05:06:42;7.03;;;4.03;;
40154;SDS011;25875;48.202;16.334;2023-03-31T05:09:09;5.20;;;3.92;;
40154;SDS011;25875;48.202;16.334;2023-03-31T05:11:36;5.57;;;4.38;;
40154;SDS011;25875;48.202;16.334;2023-03-31T05:14:03;7.35;;;4.18;;
40154;SDS011;25875;48.202;16.334;2023-03-31T05:16:31;5.88;;;4.38;;
40154;SDS011;25875;48.202;16.334;2023-03-31T05:18:58;11.23;;;4.82;;
40154;SDS011;25875;48.202;16.334;2023-03-31T05:21:25;5.15;;;3.92;;
40154;SDS011;25875;48.202;16.334;2023-03-31T05:23:54;6.75;;;4.68;;
40154;SDS011;25875;48.202;16.334;2023-03-31T05:26:21;5.25;;;4.65;;
40154;SDS011;25875;48.202;16.334;2023-03-31T05:28:49;6.15;;;4.50;;
40154;SDS011;25875;48.202;16.334;2023-03-31T05:31:16;10.00;;;5.82;;
40154;SDS011;25875;48.202;16.334;2023-03-31T05:33:44;6.70;;;5.13;;
40154;SDS011;25875;48.202;16.334;2023-03-31T05:36:12;9.27;;;5.28;;
40154;SDS011;25875;48.202;16.334;2023-03-31T05:38:41;6.35;;;4.47;;
40154;SDS011;25875;48.202;16.334;2023-03-31T05:41:08;6.78;;;4.55;;
40154;SDS011;25875;48.202;16.334;2023-03-31T05:43:36;7.10;;;4.93;;
40154;SDS011;25875;48.202;16.334;2023-03-31T05:46:03;7.75;;;4.57;;
40154;SDS011;25875;48.202;16.334;2023-03-31T05:48:30;9.75;;;4.65;;
40154;SDS011;25875;48.202;16.334;2023-03-31T05:50:58;6.53;;;4.85;;
40154;SDS011;25875;48.202;16.334;2023-03-31T05:53:26;7.75;;;4.40;;
40154;SDS011;25875;48.202;16.334;2023-03-31T05:55:55;9.05;;;4.70;;
40154;SDS011;25875;48.202;16.334;2023-03-31T05:58:23;8.43;;;5.40;;
40154;SDS011;25875;48.202;16.334;2023-03-31T06:00:58;6.20;;;4.22;;
40154;SDS011;25875;48.202;16.334;2023-03-31T06:03:26;4.55;;;3.83;;
40154;SDS011;25875;48.202;16.334;2023-03-31T06:05:53;6.43;;;4.30;;
40154;SDS011;25875;48.202;16.334;2023-03-31T06:08:21;5.55;;;3.63;;
40154;SDS011;25875;48.202;16.334;2023-03-31T06:10:48;6.00;;;4.72;;
40154;SDS011;25875;48.202;16.334;2023-03-31T06:13:15;4.32;;;3.47;;
40154;SDS011;25875;48.202;16.334;2023-03-31T06:15:42;7.38;;;4.22;;
40154;SDS011;25875;48.202;16.334;2023-03-31T06:18:08;4.70;;;4.18;;
40154;SDS011;25875;48.202;16.334;2023-03-31T06:20:35;6.63;;;3.78;;
40154;SDS011;25875;48.202;16.334;2023-03-31T06:23:02;6.82;;;3.30;;
40154;SDS011;25875;48.202;16.334;2023-03-31T06:25:30;5.75;;;3.20;;
40154;SDS011;25875;48.202;16.334;2023-03-31T06:27:57;5.97;;;3.35;;
40154;SDS011;25875;48.202;16.334;2023-03-31T06:30:24;6.85;;;3.63;;
40154;SDS011;25875;48.202;16.334;2023-03-31T06:32:50;4.63;;;3.08;;
40154;SDS011;25875;48.202;16.334;2023-03-31T06:35:17;4.43;;;3.17;;
40154;SDS011;25875;48.202;16.334;2023-03-31T06:37:44;5.90;;;3.20;;
40154;SDS011;25875;48.202;16.334;2023-03-31T06:40:11;4.70;;;3.00;;
40154;SDS011;25875;48.202;16.334;2023-03-31T06:42:39;5.65;;;4.13;;
40154;SDS011;25875;48.202;16.334;2023-03-31T06:45:07;6.70;;;3.70;;
40154;SDS011;25875;48.202;16.334;2023-03-31T06:47:34;6.93;;;4.25;;
40154;SDS011;25875;48.202;16.334;2023-03-31T06:50:02;6.22;;;3.72;;
40154;SDS011;25875;48.202;16.334;2023-03-31T06:52:31;6.45;;;3.83;;
40154;SDS011;25875;48.202;16.334;2023-03-31T06:54:58;5.95;;;4.10;;
40154;SDS011;25875;48.202;16.334;2023-03-31T06:57:26;5.97;;;3.95;;
40154;SDS011;25875;48.202;16.334;2023-03-31T06:59:54;6.93;;;4.68;;
40154;SDS011;25875;48.202;16.334;2023-03-31T07:02:21;6.85;;;4.20;;
40154;SDS011;25875;48.202;16.334;2023-03-31T07:04:47;9.40;;;4.80;;
40154;SDS011;25875;48.202;16.334;2023-03-31T07:07:14;11.00;;;4.63;;
40154;SDS011;25875;48.202;16.334;2023-03-31T07:09:41;9.02;;;6.03;;
40154;SDS011;25875;48.202;16.334;2023-03-31T07:12:08;8.07;;;5.43;;
40154;SDS011;25875;48.202;16.334;2023-03-31T07:14:35;9.85;;;5.00;;
40154;SDS011;25875;48.202;16.334;2023-03-31T07:17:03;8.23;;;5.18;;
40154;SDS011;25875;48.202;16.334;2023-03-31T07:19:30;7.75;;;4.75;;
40154;SDS011;25875;48.202;16.334;2023-03-31T07:21:56;7.07;;;4.72;;
40154;SDS011;25875;48.202;16.334;2023-03-31T07:24:23;7.50;;;4.85;;
40154;SDS011;25875;48.202;16.334;2023-03-31T07:26:51;9.18;;;5.28;;
40154;SDS011;25875;48.202;16.334;2023-03-31T07:29:17;6.93;;;4.05;;
40154;SDS011;25875;48.202;16.334;2023-03-31T07:31:45;8.88;;;4.47;;
40154;SDS011;25875;48.202;16.334;2023-03-31T07:34:14;8.60;;;4.15;;
40154;SDS011;25875;48.202;16.334;2023-03-31T07:36:40;6.63;;;4.85;;
40154;SDS011;25875;48.202;16.334;2023-03-31T07:39:07;6.03;;;4.25;;
40154;SDS011;25875;48.202;16.334;2023-03-31T07:41:34;5.82;;;4.47;;
40154;SDS011;25875;48.202;16.334;2023-03-31T07:44:01;8.43;;;4.65;;
40154;SDS011;25875;48.202;16.334;2023-03-31T07:46:28;6.80;;;4.75;;
40154;SDS011;25875;48.202;16.334;2023-03-31T07:48:56;8.77;;;5.03;;
40154;SDS011;25875;48.202;16.334;2023-03-31T07:51:27;8.02;;;5.43;;
40154;SDS011;25875;48.202;16.334;2023-03-31T07:53:54;8.75;;;5.18;;
40154;SDS011;25875;48.202;16.334;2023-03-31T07:56:22;11.23;;;5.28;;
40154;SDS011;25875;48.202;16.334;2023-03-31T07:58:49;8.85;;;4.97;;
40154;SDS011;25875;48.202;16.334;2023-03-31T08:01:18;8.98;;;5.38;;
40154;SDS011;25875;48.202;16.334;2023-03-31T08:03:50;8.80;;;5.50;;
40154;SDS011;25875;48.202;16.334;2023-03-31T08:06:18;10.73;;;5.07;;
40154;SDS011;25875;48.202;16.334;2023-03-31T08:08:48;8.85;;;5.53;;
40154;SDS011;25875;48.202;16.334;2023-03-31T08:11:15;6.53;;;4.40;;
40154;SDS011;25875;48.202;16.334;2023-03-31T08:13:42;7.60;;;4.07;;
40154;SDS011;25875;48.202;16.334;2023-03-31T08:16:09;7.40;;;3.85;;
40154;SDS011;25875;48.202;16.334;2023-03-31T08:18:36;5.47;;;3.30;;
40154;SDS011;25875;48.202;16.334;2023-03-31T08:21:03;6.05;;;3.55;;
40154;SDS011;25875;48.202;16.334;2023-03-31T08:23:30;8.68;;;6.38;;
40154;SDS011;25875;48.202;16.334;2023-03-31T08:26:07;6.10;;;3.95;;
40154;SDS011;25875;48.202;16.334;2023-03-31T08:28:35;6.00;;;4.13;;
40154;SDS011;25875;48.202;16.334;2023-03-31T08:31:03;5.13;;;3.88;;
40154;SDS011;25875;48.202;16.334;2023-03-31T08:33:30;8.48;;;4.45;;
40154;SDS011;25875;48.202;16.334;2023-03-31T08:36:00;5.88;;;3.70;;
40154;SDS011;25875;48.202;16.334;2023-03-31T08:38:27;10.02;;;4.45;;
40154;SDS011;25875;48.202;16.334;2023-03-31T08:40:57;7.10;;;3.45;;
40154;SDS011;25875;48.202;16.334;2023-03-31T08:43:27;7.45;;;3.35;;
40154;SDS011;25875;48.202;16.334;2023-03-31T08:45:58;8.60;;;3.42;;
40154;SDS011;25875;48.202;16.334;2023-03-31T08:48:28;5.40;;;3.30;;
40154;SDS011;25875;48.202;16.334;2023-03-31T08:50:59;6.30;;;3.88;;
40154;SDS011;25875;48.202;16.334;2023-03-31T08:53:32;6.15;;;3.70;;
40154;SDS011;25875;48.202;16.334;2023-03-31T08:56:05;5.97;;;3.10;;
40154;SDS011;25875;48.202;16.334;2023-03-31T08:58:41;5.28;;;3.58;;
40154;SDS011;25875;48.202;16.334;2023-03-31T09:01:12;5.90;;;3.38;;
40154;SDS011;25875;48.202;16.334;2023-03-31T09:03:51;6.57;;;3.13;;
40154;SDS011;25875;48.202;16.334;2023-03-31T09:06:33;5.60;;;3.13;;
40154;SDS011;25875;48.202;16.334;2023-03-31T09:09:04;7.05;;;3.60;;
40154;SDS011;25875;48.202;16.334;2023-03-31T09:11:37;6.93;;;4.03;;
40154;SDS011;25875;48.202;16.334;2023-03-31T09:14:21;9.82;;;3.75;;
40154;SDS011;25875;48.202;16.334;2023-03-31T09:16:58;8.02;;;3.30;;
40154;SDS011;25875;48.202;16.334;2023-03-31T09:19:36;7.03;;;3.33;;
40154;SDS011;25875;48.202;16.334;2023-03-31T09:22:08;6.28;;;3.70;;
40154;SDS011;25875;48.202;16.334;2023-03-31T09:27:12;4.78;;;2.90;;
40154;SDS011;25875;48.202;16.334;2023-03-31T09:29:42;6.40;;;3.45;;
40154;SDS011;25875;48.202;16.334;2023-03-31T09:32:13;6.13;;;3.40;;
40154;SDS011;25875;48.202;16.334;2023-03-31T09:34:42;4.93;;;3.45;;
40154;SDS011;25875;48.202;16.334;2023-03-31T09:37:10;5.53;;;3.83;;
40154;SDS011;25875;48.202;16.334;2023-03-31T09:39:38;6.68;;;3.60;;
40154;SDS011;25875;48.202;16.334;2023-03-31T09:42:05;6.47;;;3.72;;
40154;SDS011;25875;48.202;16.334;2023-03-31T09:44:36;6.43;;;4.03;;
40154;SDS011;25875;48.202;16.334;2023-03-31T09:47:08;6.65;;;3.78;;
40154;SDS011;25875;48.202;16.334;2023-03-31T09:49:40;6.47;;;3.72;;
40154;SDS011;25875;48.202;16.334;2023-03-31T09:52:11;5.75;;;3.80;;
40154;SDS011;25875;48.202;16.334;2023-03-31T09:54:45;5.70;;;3.58;;
40154;SDS011;25875;48.202;16.334;2023-03-31T09:57:22;7.07;;;3.67;;
40154;SDS011;25875;48.202;16.334;2023-03-31T09:59:51;8.60;;;4.35;;
40154;SDS011;25875;48.202;16.334;2023-03-31T10:05:04;5.57;;;4.00;;
40154;SDS011;25875;48.202;16.334;2023-03-31T10:07:33;7.13;;;4.25;;
40154;SDS011;25875;48.202;16.334;2023-03-31T10:10:00;7.80;;;4.18;;
40154;SDS011;25875;48.202;16.334;2023-03-31T10:12:28;6.65;;;5.53;;
40154;SDS011;25875;48.202;16.334;2023-03-31T10:15:02;7.10;;;4.05;;
40154;SDS011;25875;48.202;16.334;2023-03-31T10:17:43;7.82;;;4.22;;
40154;SDS011;25875;48.202;16.334;2023-03-31T10:20:20;4.95;;;3.53;;
40154;SDS011;25875;48.202;16.334;2023-03-31T10:23:01;7.85;;;4.18;;
40154;SDS011;25875;48.202;16.334;2023-03-31T10:25:29;4.95;;;3.63;;
40154;SDS011;25875;48.202;16.334;2023-03-31T10:27:59;10.23;;;4.47;;
40154;SDS011;25875;48.202;16.334;2023-03-31T10:30:29;7.63;;;4.13;;
40154;SDS011;25875;48.202;16.334;2023-03-31T10:33:01;6.03;;;4.47;;
40154;SDS011;25875;48.202;16.334;2023-03-31T10:35:32;6.20;;;4.57;;
40154;SDS011;25875;48.202;16.334;2023-03-31T10:38:01;6.55;;;4.38;;
40154;SDS011;25875;48.202;16.334;2023-03-31T10:40:31;6.18;;;4.07;;
40154;SDS011;25875;48.202;16.334;2023-03-31T10:43:02;7.80;;;4.43;;
40154;SDS011;25875;48.202;16.334;2023-03-31T10:45:36;6.23;;;3.80;;
40154;SDS011;25875;48.202;16.334;2023-03-31T10:48:15;4.72;;;4.10;;
40154;SDS011;25875;48.202;16.334;2023-03-31T10:50:43;5.53;;;3.40;;
40154;SDS011;25875;48.202;16.334;2023-03-31T10:53:11;5.63;;;4.00;;
40154;SDS011;25875;48.202;16.334;2023-03-31T10:55:41;7.63;;;4.28;;
40154;SDS011;25875;48.202;16.334;2023-03-31T10:58:20;6.65;;;3.90;;
40154;SDS011;25875;48.202;16.334;2023-03-31T11:00:58;4.53;;;3.63;;
40154;SDS011;25875;48.202;16.334;2023-03-31T11:03:39;5.88;;;4.03;;
40154;SDS011;25875;48.202;16.334;2023-03-31T11:06:14;4.75;;;4.10;;
40154;SDS011;25875;48.202;16.334;2023-03-31T11:08:48;7.97;;;4.50;;
40154;SDS011;25875;48.202;16.334;2023-03-31T11:11:26;7.15;;;4.80;;
40154;SDS011;25875;48.202;16.334;2023-03-31T11:14:14;5.65;;;4.20;;
40154;SDS011;25875;48.202;16.334;2023-03-31T11:16:51;6.32;;;4.35;;
40154;SDS011;25875;48.202;16.334;2023-03-31T11:19:30;7.28;;;4.65;;
40154;SDS011;25875;48.202;16.334;2023-03-31T11:22:08;7.43;;;4.72;;
40154;SDS011;25875;48.202;16.334;2023-03-31T11:24:46;5.75;;;4.25;;
40154;SDS011;25875;48.202;16.334;2023-03-31T11:27:56;7.60;;;4.15;;
40154;SDS011;25875;48.202;16.334;2023-03-31T11:30:37;4.63;;;3.67;;
40154;SDS011;25875;48.202;16.334;2023-03-31T11:33:25;6.15;;;4.20;;
40154;SDS011;25875;48.202;16.334;2023-03-31T11:36:06;9.68;;;4.68;;
40154;SDS011;25875;48.202;16.334;2023-03-31T11:38:47;9.18;;;3.67;;
40154;SDS011;25875;48.202;16.334;2023-03-31T11:41:26;4.75;;;3.47;;
40154;SDS011;25875;48.202;16.334;2023-03-31T11:43:58;6.20;;;4.20;;
40154;SDS011;25875;48.202;16.334;2023-03-31T11:46:31;8.48;;;5.18;;
40154;SDS011;25875;48.202;16.334;2023-03-31T11:49:05;8.60;;;5.70;;
40154;SDS011;25875;48.202;16.334;2023-03-31T11:51:43;7.28;;;4.88;;
40154;SDS011;25875;48.202;16.334;2023-03-31T11:54:16;8.50;;;5.53;;
40154;SDS011;25875;48.202;16.334;2023-03-31T11:56:49;12.02;;;5.53;;
40154;SDS011;25875;48.202;16.334;2023-03-31T11:59:18;6.95;;;4.75;;
40154;SDS011;25875;48.202;16.334;2023-03-31T12:01:48;5.95;;;4.28;;
40154;SDS011;25875;48.202;16.334;2023-03-31T12:04:24;9.00;;;4.18;;
40154;SDS011;25875;48.202;16.334;2023-03-31T12:07:01;4.75;;;4.00;;
40154;SDS011;25875;48.202;16.334;2023-03-31T12:09:32;6.68;;;4.10;;
40154;SDS011;25875;48.202;16.334;2023-03-31T12:12:04;6.50;;;3.73;;
40154;SDS011;25875;48.202;16.334;2023-03-31T12:14:36;7.00;;;4.20;;
40154;SDS011;25875;48.202;16.334;2023-03-31T12:17:08;5.95;;;3.83;;
40154;SDS011;25875;48.202;16.334;2023-03-31T12:19:39;4.97;;;3.75;;
40154;SDS011;25875;48.202;16.334;2023-03-31T12:22:14;4.90;;;3.75;;
40154;SDS011;25875;48.202;16.334;2023-03-31T12:24:45;7.93;;;3.92;;
40154;SDS011;25875;48.202;16.334;2023-03-31T12:27:14;7.10;;;4.32;;
40154;SDS011;25875;48.202;16.334;2023-03-31T12:29:47;4.90;;;3.45;;
40154;SDS011;25875;48.202;16.334;2023-03-31T12:32:21;7.00;;;3.85;;
40154;SDS011;25875;48.202;16.334;2023-03-31T12:34:53;6.10;;;3.80;;
40154;SDS011;25875;48.202;16.334;2023-03-31T12:40:30;11.73;;;4.07;;
40154;SDS011;25875;48.202;16.334;2023-03-31T12:43:07;4.63;;;3.40;;
40154;SDS011;25875;48.202;16.334;2023-03-31T12:46:06;5.65;;;4.03;;
40154;SDS011;25875;48.202;16.334;2023-03-31T12:48:46;7.90;;;3.97;;
40154;SDS011;25875;48.202;16.334;2023-03-31T12:51:29;5.22;;;3.70;;
40154;SDS011;25875;48.202;16.334;2023-03-31T12:54:16;4.22;;;3.25;;
40154;SDS011;25875;48.202;16.334;2023-03-31T12:57:11;5.88;;;3.90;;
40154;SDS011;25875;48.202;16.334;2023-03-31T12:59:41;5.72;;;3.88;;
40154;SDS011;25875;48.202;16.334;2023-03-31T13:04:59;5.18;;;3.58;;
40154;SDS011;25875;48.202;16.334;2023-03-31T13:08:07;4.80;;;3.50;;
40154;SDS011;25875;48.202;16.334;2023-03-31T13:10:49;5.32;;;3.60;;
40154;SDS011;25875;48.202;16.334;2023-03-31T13:13:21;5.63;;;3.60;;
40154;SDS011;25875;48.202;16.334;2023-03-31T13:15:50;4.50;;;2.88;;
40154;SDS011;25875;48.202;16.334;2023-03-31T13:18:20;6.20;;;3.20;;
40154;SDS011;25875;48.202;16.334;2023-03-31T13:20:56;4.30;;;3.22;;
40154;SDS011;25875;48.202;16.334;2023-03-31T13:23:25;3.88;;;3.03;;
40154;SDS011;25875;48.202;16.334;2023-03-31T13:25:55;4.45;;;2.72;;
40154;SDS011;25875;48.202;16.334;2023-03-31T13:28:25;3.92;;;3.05;;
40154;SDS011;25875;48.202;16.334;2023-03-31T13:31:07;6.80;;;3.25;;
40154;SDS011;25875;48.202;16.334;2023-03-31T13:33:36;4.78;;;3.40;;
40154;SDS011;25875;48.202;16.334;2023-03-31T13:36:32;5.25;;;2.92;;
40154;SDS011;25875;48.202;16.334;2023-03-31T13:39:29;4.95;;;3.20;;
40154;SDS011;25875;48.202;16.334;2023-03-31T13:42:22;3.78;;;2.58;;
40154;SDS011;25875;48.202;16.334;2023-03-31T13:45:09;3.47;;;2.20;;
40154;SDS011;25875;48.202;16.334;2023-03-31T13:47:54;5.78;;;2.80;;
40154;SDS011;25875;48.202;16.334;2023-03-31T13:50:36;4.32;;;2.80;;
40154;SDS011;25875;48.202;16.334;2023-03-31T13:53:18;4.43;;;2.92;;
40154;SDS011;25875;48.202;16.334;2023-03-31T13:56:03;4.78;;;2.35;;
40154;SDS011;25875;48.202;16.334;2023-03-31T14:01:41;3.17;;;2.35;;
40154;SDS011;25875;48.202;16.334;2023-03-31T14:07:26;3.90;;;2.45;;
40154;SDS011;25875;48.202;16.334;2023-03-31T14:09:57;5.97;;;2.83;;
40154;SDS011;25875;48.202;16.334;2023-03-31T14:12:32;3.67;;;2.40;;
40154;SDS011;25875;48.202;16.334;2023-03-31T14:15:01;3.25;;;2.35;;
40154;SDS011;25875;48.202;16.334;2023-03-31T14:17:30;3.45;;;2.47;;
40154;SDS011;25875;48.202;16.334;2023-03-31T14:22:53;3.60;;;2.53;;
40154;SDS011;25875;48.202;16.334;2023-03-31T14:25:32;3.30;;;2.50;;
40154;SDS011;25875;48.202;16.334;2023-03-31T14:28:12;4.60;;;2.92;;
40154;SDS011;25875;48.202;16.334;2023-03-31T14:31:00;3.92;;;2.60;;
40154;SDS011;25875;48.202;16.334;2023-03-31T14:33:37;4.13;;;2.72;;
40154;SDS011;25875;48.202;16.334;2023-03-31T14:36:12;4.00;;;2.28;;
40154;SDS011;25875;48.202;16.334;2023-03-31T14:38:45;4.53;;;2.38;;
40154;SDS011;25875;48.202;16.334;2023-03-31T14:41:14;3.75;;;2.55;;
40154;SDS011;25875;48.202;16.334;2023-03-31T14:43:55;3.75;;;2.50;;
40154;SDS011;25875;48.202;16.334;2023-03-31T14:46:23;4.18;;;2.50;;
40154;SDS011;25875;48.202;16.334;2023-03-31T14:48:50;4.90;;;2.95;;
40154;SDS011;25875;48.202;16.334;2023-03-31T14:51:18;8.63;;;2.97;;
40154;SDS011;25875;48.202;16.334;2023-03-31T14:53:54;5.32;;;2.60;;
40154;SDS011;25875;48.202;16.334;2023-03-31T14:56:23;3.33;;;2.50;;
40154;SDS011;25875;48.202;16.334;2023-03-31T14:58:59;4.22;;;2.30;;
40154;SDS011;25875;48.202;16.334;2023-03-31T15:01:28;4.40;;;2.53;;
40154;SDS011;25875;48.202;16.334;2023-03-31T15:04:00;3.97;;;2.78;;
40154;SDS011;25875;48.202;16.334;2023-03-31T15:06:31;6.22;;;2.97;;
40154;SDS011;25875;48.202;16.334;2023-03-31T15:09:00;7.13;;;2.60;;
40154;SDS011;25875;48.202;16.334;2023-03-31T15:11:29;4.57;;;2.65;;
40154;SDS011;25875;48.202;16.334;2023-03-31T15:13:59;4.13;;;2.65;;
40154;SDS011;25875;48.202;16.334;2023-03-31T15:16:29;4.28;;;2.33;;
40154;SDS011;25875;48.202;16.334;2023-03-31T15:19:00;4.22;;;2.58;;
40154;SDS011;25875;48.202;16.334;2023-03-31T15:21:32;3.85;;;2.08;;
40154;SDS011;25875;48.202;16.334;2023-03-31T15:24:03;2.67;;;1.80;;
40154;SDS011;25875;48.202;16.334;2023-03-31T15:26:33;6.97;;;2.28;;
40154;SDS011;25875;48.202;16.334;2023-03-31T15:29:07;5.20;;;1.90;;
40154;SDS011;25875;48.202;16.334;2023-03-31T15:31:37;4.05;;;1.98;;
40154;SDS011;25875;48.202;16.334;2023-03-31T15:34:18;3.30;;;1.63;;
40154;SDS011;25875;48.202;16.334;2023-03-31T15:36:48;2.58;;;1.63;;
40154;SDS011;25875;48.202;16.334;2023-03-31T15:39:15;3.28;;;1.90;;